sensor_id;sensor_type;location;lat;lon;timestamp;temperature;humidity
29575;DHT22;16507;51.046;6.406;2023-07-24T00:00:34;17.40;99.90
29575;DHT22;16507;51.046;6.406;2023-07-24T00:03:01;17.40;99.90
29575;DHT22;16507;51.046;6.406;2023-07-24T00:05:26;17.40;99.90
29575;DHT22;16507;51.046;6.406;2023-07-24T00:07:52;17.40;99.90
29575;DHT22;16507;51.046;6.406;2023-07-24T00:10:17;17.30;99.90
29575;DHT22;16507;51.046;6.406;2023-07-24T00:12:43;17.30;99.90
29575;DHT22;16507;51.046;6.406;2023-07-24T00:15:09;17.30;99.90
29575;DHT22;16507;51.046;6.406;2023-07-24T00:17:34;17.20;99.90
29575;DHT22;16507;51.046;6.406;2023-07-24T00:20:00;17.20;99.90
29575;DHT22;16507;51.046;6.406;2023-07-24T00:22:26;17.20;99.90
29575;DHT22;16507;51.046;6.406;2023-07-24T00:24:51;17.20;99.90
29575;DHT22;16507;51.046;6.406;2023-07-24T00:27:20;17.20;99.90
29575;DHT22;16507;51.046;6.406;2023-07-24T00:29:45;17.20;99.90
29575;DHT22;16507;51.046;6.406;2023-07-24T00:32:11;17.30;99.90
29575;DHT22;16507;51.046;6.406;2023-07-24T00:34:37;17.20;99.90
29575;DHT22;16507;51.046;6.406;2023-07-24T00:37:03;17.20;99.90
29575;DHT22;16507;51.046;6.406;2023-07-24T00:39:28;17.20;99.90
29575;DHT22;16507;51.046;6.406;2023-07-24T00:41:55;17.20;99.90
29575;DHT22;16507;51.046;6.406;2023-07-24T00:44:20;17.20;99.90
29575;DHT22;16507;51.046;6.406;2023-07-24T00:46:46;17.20;99.90
29575;DHT22;16507;51.046;6.406;2023-07-24T00:49:12;17.10;99.90
29575;DHT22;16507;51.046;6.406;2023-07-24T00:51:38;17.10;99.90
29575;DHT22;16507;51.046;6.406;2023-07-24T00:54:06;17.10;99.90
29575;DHT22;16507;51.046;6.406;2023-07-24T00:56:32;17.10;99.90
29575;DHT22;16507;51.046;6.406;2023-07-24T00:58:59;17.10;99.90
29575;DHT22;16507;51.046;6.406;2023-07-24T01:01:25;17.10;99.90
29575;DHT22;16507;51.046;6.406;2023-07-24T01:03:52;17.10;99.90
29575;DHT22;16507;51.046;6.406;2023-07-24T01:06:18;17.00;99.90
29575;DHT22;16507;51.046;6.406;2023-07-24T01:08:44;17.00;99.90
29575;DHT22;16507;51.046;6.406;2023-07-24T01:11:30;17.00;99.90
29575;DHT22;16507;51.046;6.406;2023-07-24T01:16:41;17.00;99.90
29575;DHT22;16507;51.046;6.406;2023-07-24T01:19:20;17.00;99.90
29575;DHT22;16507;51.046;6.406;2023-07-24T01:22:05;17.00;99.90
29575;DHT22;16507;51.046;6.406;2023-07-24T01:24:39;16.90;99.90
29575;DHT22;16507;51.046;6.406;2023-07-24T01:27:09;17.00;99.90
29575;DHT22;16507;51.046;6.406;2023-07-24T01:29:34;16.90;99.90
29575;DHT22;16507;51.046;6.406;2023-07-24T01:32:00;16.90;99.90
29575;DHT22;16507;51.046;6.406;2023-07-24T01:34:25;16.90;99.90
29575;DHT22;16507;51.046;6.406;2023-07-24T01:36:51;16.90;99.90
29575;DHT22;16507;51.046;6.406;2023-07-24T01:39:19;16.90;99.90
29575;DHT22;16507;51.046;6.406;2023-07-24T01:41:45;16.90;99.90
29575;DHT22;16507;51.046;6.406;2023-07-24T01:44:11;17.00;99.90
29575;DHT22;16507;51.046;6.406;2023-07-24T01:46:37;17.00;99.90
29575;DHT22;16507;51.046;6.406;2023-07-24T01:49:03;17.10;99.90
29575;DHT22;16507;51.046;6.406;2023-07-24T01:51:29;17.10;99.90
29575;DHT22;16507;51.046;6.406;2023-07-24T01:53:54;17.10;99.90
29575;DHT22;16507;51.046;6.406;2023-07-24T01:56:20;17.20;99.90
29575;DHT22;16507;51.046;6.406;2023-07-24T01:58:45;17.20;99.90
29575;DHT22;16507;51.046;6.406;2023-07-24T02:01:11;17.20;99.90
29575;DHT22;16507;51.046;6.406;2023-07-24T02:03:37;17.20;99.90
29575;DHT22;16507;51.046;6.406;2023-07-24T02:06:04;17.20;99.90
29575;DHT22;16507;51.046;6.406;2023-07-24T02:08:30;17.30;99.90
29575;DHT22;16507;51.046;6.406;2023-07-24T02:10:55;17.30;99.90
29575;DHT22;16507;51.046;6.406;2023-07-24T02:13:21;17.30;99.90
29575;DHT22;16507;51.046;6.406;2023-07-24T02:15:46;17.30;99.90
29575;DHT22;16507;51.046;6.406;2023-07-24T02:18:12;17.40;99.90
29575;DHT22;16507;51.046;6.406;2023-07-24T02:20:38;17.50;99.90
29575;DHT22;16507;51.046;6.406;2023-07-24T02:23:03;17.50;99.90
29575;DHT22;16507;51.046;6.406;2023-07-24T02:25:29;17.50;99.90
29575;DHT22;16507;51.046;6.406;2023-07-24T02:27:54;17.50;99.90
29575;DHT22;16507;51.046;6.406;2023-07-24T02:30:20;17.50;99.90
29575;DHT22;16507;51.046;6.406;2023-07-24T02:32:45;17.50;99.90
29575;DHT22;16507;51.046;6.406;2023-07-24T02:35:11;17.50;99.90
29575;DHT22;16507;51.046;6.406;2023-07-24T02:37:38;17.50;99.90
29575;DHT22;16507;51.046;6.406;2023-07-24T02:40:03;17.60;99.90
29575;DHT22;16507;51.046;6.406;2023-07-24T02:42:29;17.60;99.90
29575;DHT22;16507;51.046;6.406;2023-07-24T02:44:55;17.60;99.90
29575;DHT22;16507;51.046;6.406;2023-07-24T02:47:20;17.60;99.90
29575;DHT22;16507;51.046;6.406;2023-07-24T02:49:47;17.60;99.90
29575;DHT22;16507;51.046;6.406;2023-07-24T02:52:12;17.70;99.90
29575;DHT22;16507;51.046;6.406;2023-07-24T02:54:38;17.70;99.90
29575;DHT22;16507;51.046;6.406;2023-07-24T02:57:04;17.70;99.90
29575;DHT22;16507;51.046;6.406;2023-07-24T02:59:30;17.80;99.90
29575;DHT22;16507;51.046;6.406;2023-07-24T03:01:57;17.70;99.90
29575;DHT22;16507;51.046;6.406;2023-07-24T03:04:23;17.80;99.90
29575;DHT22;16507;51.046;6.406;2023-07-24T03:06:49;17.80;99.90
29575;DHT22;16507;51.046;6.406;2023-07-24T03:09:14;17.80;99.90
29575;DHT22;16507;51.046;6.406;2023-07-24T03:11:40;17.80;99.90
29575;DHT22;16507;51.046;6.406;2023-07-24T03:14:06;17.70;99.90
29575;DHT22;16507;51.046;6.406;2023-07-24T03:16:31;17.70;99.90
29575;DHT22;16507;51.046;6.406;2023-07-24T03:18:57;17.70;99.90
29575;DHT22;16507;51.046;6.406;2023-07-24T03:21:23;17.60;99.90
29575;DHT22;16507;51.046;6.406;2023-07-24T03:23:49;17.60;99.90
29575;DHT22;16507;51.046;6.406;2023-07-24T03:26:14;17.60;99.90
29575;DHT22;16507;51.046;6.406;2023-07-24T03:28:40;17.60;99.90
29575;DHT22;16507;51.046;6.406;2023-07-24T03:31:05;17.60;99.90
29575;DHT22;16507;51.046;6.406;2023-07-24T03:33:31;17.60;99.90
29575;DHT22;16507;51.046;6.406;2023-07-24T03:35:56;17.60;99.90
29575;DHT22;16507;51.046;6.406;2023-07-24T03:38:22;17.60;99.90
29575;DHT22;16507;51.046;6.406;2023-07-24T03:40:47;17.60;99.90
29575;DHT22;16507;51.046;6.406;2023-07-24T03:43:13;17.60;99.90
29575;DHT22;16507;51.046;6.406;2023-07-24T03:45:39;17.60;99.90
29575;DHT22;16507;51.046;6.406;2023-07-24T03:48:05;17.60;99.90
29575;DHT22;16507;51.046;6.406;2023-07-24T03:50:30;17.60;99.90
29575;DHT22;16507;51.046;6.406;2023-07-24T03:52:56;17.60;99.90
29575;DHT22;16507;51.046;6.406;2023-07-24T03:55:21;17.70;99.90
29575;DHT22;16507;51.046;6.406;2023-07-24T03:57:47;17.70;99.90
29575;DHT22;16507;51.046;6.406;2023-07-24T04:00:13;17.80;99.90
29575;DHT22;16507;51.046;6.406;2023-07-24T04:02:39;17.80;99.90
29575;DHT22;16507;51.046;6.406;2023-07-24T04:05:05;17.80;99.90
29575;DHT22;16507;51.046;6.406;2023-07-24T04:07:30;17.90;99.90
29575;DHT22;16507;51.046;6.406;2023-07-24T04:09:56;17.90;99.90
29575;DHT22;16507;51.046;6.406;2023-07-24T04:12:22;17.90;99.90
29575;DHT22;16507;51.046;6.406;2023-07-24T04:14:47;17.90;99.90
29575;DHT22;16507;51.046;6.406;2023-07-24T04:17:14;17.90;99.90
29575;DHT22;16507;51.046;6.406;2023-07-24T04:19:40;17.90;99.90
29575;DHT22;16507;51.046;6.406;2023-07-24T04:22:05;17.90;99.90
29575;DHT22;16507;51.046;6.406;2023-07-24T04:24:31;17.90;99.90
29575;DHT22;16507;51.046;6.406;2023-07-24T04:26:57;17.90;99.90
29575;DHT22;16507;51.046;6.406;2023-07-24T04:29:22;17.90;99.90
29575;DHT22;16507;51.046;6.406;2023-07-24T04:31:51;17.90;99.90
29575;DHT22;16507;51.046;6.406;2023-07-24T04:34:19;17.90;99.90
29575;DHT22;16507;51.046;6.406;2023-07-24T04:36:45;17.90;99.90
29575;DHT22;16507;51.046;6.406;2023-07-24T04:39:10;17.90;99.90
29575;DHT22;16507;51.046;6.406;2023-07-24T04:41:36;17.90;99.90
29575;DHT22;16507;51.046;6.406;2023-07-24T04:44:01;17.80;99.90
29575;DHT22;16507;51.046;6.406;2023-07-24T04:46:27;17.80;99.90
29575;DHT22;16507;51.046;6.406;2023-07-24T04:48:52;17.90;99.90
29575;DHT22;16507;51.046;6.406;2023-07-24T04:51:18;17.80;99.90
29575;DHT22;16507;51.046;6.406;2023-07-24T04:53:44;17.90;99.90
29575;DHT22;16507;51.046;6.406;2023-07-24T04:56:10;18.00;99.90
29575;DHT22;16507;51.046;6.406;2023-07-24T04:58:36;18.00;99.90
29575;DHT22;16507;51.046;6.406;2023-07-24T05:01:04;18.10;99.90
29575;DHT22;16507;51.046;6.406;2023-07-24T05:03:31;18.10;99.90
29575;DHT22;16507;51.046;6.406;2023-07-24T05:05:56;18.20;99.90
29575;DHT22;16507;51.046;6.406;2023-07-24T05:08:22;18.20;99.90
29575;DHT22;16507;51.046;6.406;2023-07-24T05:10:54;18.20;99.90
29575;DHT22;16507;51.046;6.406;2023-07-24T05:13:20;18.20;99.90
29575;DHT22;16507;51.046;6.406;2023-07-24T05:15:46;18.30;99.90
29575;DHT22;16507;51.046;6.406;2023-07-24T05:18:11;18.30;99.90
29575;DHT22;16507;51.046;6.406;2023-07-24T05:20:37;18.30;99.90
29575;DHT22;16507;51.046;6.406;2023-07-24T05:23:02;18.40;99.90
29575;DHT22;16507;51.046;6.406;2023-07-24T05:25:28;18.40;99.90
29575;DHT22;16507;51.046;6.406;2023-07-24T05:27:53;18.40;99.90
29575;DHT22;16507;51.046;6.406;2023-07-24T05:30:19;18.50;99.90
29575;DHT22;16507;51.046;6.406;2023-07-24T05:32:45;18.50;99.90
29575;DHT22;16507;51.046;6.406;2023-07-24T05:35:10;18.40;99.90
29575;DHT22;16507;51.046;6.406;2023-07-24T05:37:36;18.50;99.90
29575;DHT22;16507;51.046;6.406;2023-07-24T05:40:01;18.50;99.90
29575;DHT22;16507;51.046;6.406;2023-07-24T05:42:27;18.50;99.90
29575;DHT22;16507;51.046;6.406;2023-07-24T05:44:52;18.50;99.90
29575;DHT22;16507;51.046;6.406;2023-07-24T05:47:18;18.60;99.90
29575;DHT22;16507;51.046;6.406;2023-07-24T05:49:44;18.60;99.90
29575;DHT22;16507;51.046;6.406;2023-07-24T05:52:09;18.60;99.90
29575;DHT22;16507;51.046;6.406;2023-07-24T05:54:35;18.60;99.90
29575;DHT22;16507;51.046;6.406;2023-07-24T05:57:00;18.60;99.90
29575;DHT22;16507;51.046;6.406;2023-07-24T05:59:26;18.60;99.90
29575;DHT22;16507;51.046;6.406;2023-07-24T06:01:51;18.80;99.90
29575;DHT22;16507;51.046;6.406;2023-07-24T06:04:17;18.90;99.90
29575;DHT22;16507;51.046;6.406;2023-07-24T06:06:43;18.90;99.90
29575;DHT22;16507;51.046;6.406;2023-07-24T06:09:09;19.00;99.90
29575;DHT22;16507;51.046;6.406;2023-07-24T06:11:34;19.10;99.90
29575;DHT22;16507;51.046;6.406;2023-07-24T06:14:00;19.10;99.90
29575;DHT22;16507;51.046;6.406;2023-07-24T06:16:25;19.10;99.90
29575;DHT22;16507;51.046;6.406;2023-07-24T06:18:51;19.10;99.90
29575;DHT22;16507;51.046;6.406;2023-07-24T06:21:16;19.10;99.90
29575;DHT22;16507;51.046;6.406;2023-07-24T06:23:42;19.20;99.90
29575;DHT22;16507;51.046;6.406;2023-07-24T06:26:07;19.30;99.90
29575;DHT22;16507;51.046;6.406;2023-07-24T06:28:33;19.30;99.90
29575;DHT22;16507;51.046;6.406;2023-07-24T06:30:59;19.30;99.90
29575;DHT22;16507;51.046;6.406;2023-07-24T06:33:24;19.40;99.90
29575;DHT22;16507;51.046;6.406;2023-07-24T06:35:50;19.40;99.90
29575;DHT22;16507;51.046;6.406;2023-07-24T06:38:16;19.30;99.90
29575;DHT22;16507;51.046;6.406;2023-07-24T06:40:42;19.40;99.90
29575;DHT22;16507;51.046;6.406;2023-07-24T06:43:07;19.40;99.90
29575;DHT22;16507;51.046;6.406;2023-07-24T06:45:33;19.30;99.90
29575;DHT22;16507;51.046;6.406;2023-07-24T06:47:58;19.30;99.90
29575;DHT22;16507;51.046;6.406;2023-07-24T06:50:24;19.40;99.90
29575;DHT22;16507;51.046;6.406;2023-07-24T06:52:50;19.40;99.90
29575;DHT22;16507;51.046;6.406;2023-07-24T06:55:17;19.40;99.90
29575;DHT22;16507;51.046;6.406;2023-07-24T06:57:43;19.40;99.90
29575;DHT22;16507;51.046;6.406;2023-07-24T07:00:09;19.40;99.90
29575;DHT22;16507;51.046;6.406;2023-07-24T07:02:37;19.40;99.90
29575;DHT22;16507;51.046;6.406;2023-07-24T07:05:03;19.40;99.90
29575;DHT22;16507;51.046;6.406;2023-07-24T07:07:29;19.40;99.90
29575;DHT22;16507;51.046;6.406;2023-07-24T07:09:54;19.40;99.90
29575;DHT22;16507;51.046;6.406;2023-07-24T07:12:20;19.40;99.90
29575;DHT22;16507;51.046;6.406;2023-07-24T07:14:45;19.50;99.90
29575;DHT22;16507;51.046;6.406;2023-07-24T07:17:11;19.50;99.90
29575;DHT22;16507;51.046;6.406;2023-07-24T07:19:37;19.40;99.90
29575;DHT22;16507;51.046;6.406;2023-07-24T07:22:02;19.30;99.90
29575;DHT22;16507;51.046;6.406;2023-07-24T07:24:28;19.30;99.90
29575;DHT22;16507;51.046;6.406;2023-07-24T07:26:54;19.20;99.90
29575;DHT22;16507;51.046;6.406;2023-07-24T07:29:19;19.30;99.90
29575;DHT22;16507;51.046;6.406;2023-07-24T07:31:45;19.50;99.90
29575;DHT22;16507;51.046;6.406;2023-07-24T07:34:10;19.60;99.90
29575;DHT22;16507;51.046;6.406;2023-07-24T07:36:36;19.70;99.90
29575;DHT22;16507;51.046;6.406;2023-07-24T07:39:01;19.70;99.90
29575;DHT22;16507;51.046;6.406;2023-07-24T07:41:27;19.80;99.90
29575;DHT22;16507;51.046;6.406;2023-07-24T07:43:54;19.80;99.90
29575;DHT22;16507;51.046;6.406;2023-07-24T07:46:19;19.90;99.90
29575;DHT22;16507;51.046;6.406;2023-07-24T07:48:45;19.80;99.90
29575;DHT22;16507;51.046;6.406;2023-07-24T07:51:12;19.90;99.90
29575;DHT22;16507;51.046;6.406;2023-07-24T07:53:37;19.80;99.90
29575;DHT22;16507;51.046;6.406;2023-07-24T07:56:04;19.80;99.90
29575;DHT22;16507;51.046;6.406;2023-07-24T07:58:30;20.00;99.90
29575;DHT22;16507;51.046;6.406;2023-07-24T08:00:55;19.90;99.90
29575;DHT22;16507;51.046;6.406;2023-07-24T08:03:21;19.90;99.90
29575;DHT22;16507;51.046;6.406;2023-07-24T08:05:47;19.80;99.90
29575;DHT22;16507;51.046;6.406;2023-07-24T08:08:13;19.80;99.90
29575;DHT22;16507;51.046;6.406;2023-07-24T08:10:39;19.90;99.90
29575;DHT22;16507;51.046;6.406;2023-07-24T08:13:05;19.80;99.90
29575;DHT22;16507;51.046;6.406;2023-07-24T08:15:37;19.80;99.90
29575;DHT22;16507;51.046;6.406;2023-07-24T08:18:03;19.70;99.90
29575;DHT22;16507;51.046;6.406;2023-07-24T08:20:29;19.70;99.90
29575;DHT22;16507;51.046;6.406;2023-07-24T08:22:54;19.60;99.90
29575;DHT22;16507;51.046;6.406;2023-07-24T08:25:20;19.60;99.90
29575;DHT22;16507;51.046;6.406;2023-07-24T08:27:46;19.60;99.90
29575;DHT22;16507;51.046;6.406;2023-07-24T08:30:11;19.60;99.90
29575;DHT22;16507;51.046;6.406;2023-07-24T08:32:38;19.80;99.90
29575;DHT22;16507;51.046;6.406;2023-07-24T08:35:04;19.90;99.90
29575;DHT22;16507;51.046;6.406;2023-07-24T08:37:30;19.80;99.90
29575;DHT22;16507;51.046;6.406;2023-07-24T08:39:55;19.90;99.90
29575;DHT22;16507;51.046;6.406;2023-07-24T08:42:22;20.00;99.90
29575;DHT22;16507;51.046;6.406;2023-07-24T08:44:48;20.00;99.90
29575;DHT22;16507;51.046;6.406;2023-07-24T08:47:15;20.00;99.90
29575;DHT22;16507;51.046;6.406;2023-07-24T08:49:42;20.10;99.90
29575;DHT22;16507;51.046;6.406;2023-07-24T08:52:08;20.10;99.90
29575;DHT22;16507;51.046;6.406;2023-07-24T08:54:35;20.10;99.90
29575;DHT22;16507;51.046;6.406;2023-07-24T08:57:02;20.30;99.90
29575;DHT22;16507;51.046;6.406;2023-07-24T08:59:29;20.40;99.90
29575;DHT22;16507;51.046;6.406;2023-07-24T09:01:55;20.30;99.90
29575;DHT22;16507;51.046;6.406;2023-07-24T09:04:21;20.00;99.90
29575;DHT22;16507;51.046;6.406;2023-07-24T09:06:46;19.90;99.90
29575;DHT22;16507;51.046;6.406;2023-07-24T09:09:13;20.00;99.90
29575;DHT22;16507;51.046;6.406;2023-07-24T09:11:49;20.20;99.90
29575;DHT22;16507;51.046;6.406;2023-07-24T09:14:26;20.50;99.90
29575;DHT22;16507;51.046;6.406;2023-07-24T09:17:09;20.90;99.90
29575;DHT22;16507;51.046;6.406;2023-07-24T09:19:35;21.10;99.90
29575;DHT22;16507;51.046;6.406;2023-07-24T09:22:18;21.20;99.90
29575;DHT22;16507;51.046;6.406;2023-07-24T09:24:53;21.50;99.90
29575;DHT22;16507;51.046;6.406;2023-07-24T09:27:19;21.70;99.90
29575;DHT22;16507;51.046;6.406;2023-07-24T09:29:45;22.00;99.90
29575;DHT22;16507;51.046;6.406;2023-07-24T09:32:25;21.90;99.90
29575;DHT22;16507;51.046;6.406;2023-07-24T09:34:51;21.50;99.90
29575;DHT22;16507;51.046;6.406;2023-07-24T09:37:25;21.40;99.90
29575;DHT22;16507;51.046;6.406;2023-07-24T09:39:51;21.20;99.90
29575;DHT22;16507;51.046;6.406;2023-07-24T09:42:17;21.20;99.90
29575;DHT22;16507;51.046;6.406;2023-07-24T09:44:42;21.30;99.90
29575;DHT22;16507;51.046;6.406;2023-07-24T09:47:08;21.50;99.90
29575;DHT22;16507;51.046;6.406;2023-07-24T09:49:34;21.80;99.90
29575;DHT22;16507;51.046;6.406;2023-07-24T09:52:05;21.80;99.90
29575;DHT22;16507;51.046;6.406;2023-07-24T09:54:40;22.00;99.90
29575;DHT22;16507;51.046;6.406;2023-07-24T09:57:11;22.10;99.90
29575;DHT22;16507;51.046;6.406;2023-07-24T09:59:36;21.90;99.90
29575;DHT22;16507;51.046;6.406;2023-07-24T10:02:03;21.60;99.90
29575;DHT22;16507;51.046;6.406;2023-07-24T10:04:29;21.50;99.90
29575;DHT22;16507;51.046;6.406;2023-07-24T10:06:55;21.20;99.90
29575;DHT22;16507;51.046;6.406;2023-07-24T10:09:21;21.10;99.90
29575;DHT22;16507;51.046;6.406;2023-07-24T10:11:49;21.30;99.90
29575;DHT22;16507;51.046;6.406;2023-07-24T10:14:15;21.50;99.90
29575;DHT22;16507;51.046;6.406;2023-07-24T10:16:41;21.60;99.90
29575;DHT22;16507;51.046;6.406;2023-07-24T10:19:14;21.80;99.90
29575;DHT22;16507;51.046;6.406;2023-07-24T10:21:46;21.90;99.90
29575;DHT22;16507;51.046;6.406;2023-07-24T10:24:11;22.10;99.90
29575;DHT22;16507;51.046;6.406;2023-07-24T10:26:37;22.20;99.90
29575;DHT22;16507;51.046;6.406;2023-07-24T10:29:03;22.10;99.90
29575;DHT22;16507;51.046;6.406;2023-07-24T10:31:28;22.30;99.90
29575;DHT22;16507;51.046;6.406;2023-07-24T10:33:59;22.30;99.90
29575;DHT22;16507;51.046;6.406;2023-07-24T10:36:33;22.40;99.90
29575;DHT22;16507;51.046;6.406;2023-07-24T10:38:59;22.30;99.90
29575;DHT22;16507;51.046;6.406;2023-07-24T10:41:36;22.50;99.90
29575;DHT22;16507;51.046;6.406;2023-07-24T10:44:03;23.40;99.90
29575;DHT22;16507;51.046;6.406;2023-07-24T10:46:39;24.10;99.90
29575;DHT22;16507;51.046;6.406;2023-07-24T10:49:07;24.10;99.90
29575;DHT22;16507;51.046;6.406;2023-07-24T10:51:32;23.60;99.90
29575;DHT22;16507;51.046;6.406;2023-07-24T10:54:01;23.20;99.90
29575;DHT22;16507;51.046;6.406;2023-07-24T10:56:27;22.60;99.90
29575;DHT22;16507;51.046;6.406;2023-07-24T10:58:53;22.30;99.90
29575;DHT22;16507;51.046;6.406;2023-07-24T11:01:18;22.00;99.90
29575;DHT22;16507;51.046;6.406;2023-07-24T11:03:44;21.60;99.90
29575;DHT22;16507;51.046;6.406;2023-07-24T11:06:18;21.10;99.90
29575;DHT22;16507;51.046;6.406;2023-07-24T11:08:55;20.60;99.90
29575;DHT22;16507;51.046;6.406;2023-07-24T11:11:35;20.10;99.90
29575;DHT22;16507;51.046;6.406;2023-07-24T11:14:02;19.60;99.90
29575;DHT22;16507;51.046;6.406;2023-07-24T11:16:27;19.40;99.90
29575;DHT22;16507;51.046;6.406;2023-07-24T11:18:55;19.20;99.90
29575;DHT22;16507;51.046;6.406;2023-07-24T11:21:22;18.90;99.90
29575;DHT22;16507;51.046;6.406;2023-07-24T11:23:53;18.40;99.90
29575;DHT22;16507;51.046;6.406;2023-07-24T11:26:24;17.90;99.90
29575;DHT22;16507;51.046;6.406;2023-07-24T11:28:51;17.70;99.90
29575;DHT22;16507;51.046;6.406;2023-07-24T11:31:17;17.50;99.90
29575;DHT22;16507;51.046;6.406;2023-07-24T11:33:47;17.50;99.90
29575;DHT22;16507;51.046;6.406;2023-07-24T11:36:13;17.60;99.90
29575;DHT22;16507;51.046;6.406;2023-07-24T11:38:39;17.60;99.90
29575;DHT22;16507;51.046;6.406;2023-07-24T11:41:05;17.50;99.90
29575;DHT22;16507;51.046;6.406;2023-07-24T11:43:31;17.50;99.90
29575;DHT22;16507;51.046;6.406;2023-07-24T11:45:56;17.40;99.90
29575;DHT22;16507;51.046;6.406;2023-07-24T11:48:24;17.10;99.90
29575;DHT22;16507;51.046;6.406;2023-07-24T11:50:52;16.60;99.90
29575;DHT22;16507;51.046;6.406;2023-07-24T11:53:28;16.50;99.90
29575;DHT22;16507;51.046;6.406;2023-07-24T11:55:56;16.60;99.90
29575;DHT22;16507;51.046;6.406;2023-07-24T11:58:22;16.60;99.90
29575;DHT22;16507;51.046;6.406;2023-07-24T12:00:52;16.70;99.90
29575;DHT22;16507;51.046;6.406;2023-07-24T12:03:22;17.10;99.90
29575;DHT22;16507;51.046;6.406;2023-07-24T12:05:49;17.80;99.90
29575;DHT22;16507;51.046;6.406;2023-07-24T12:08:16;18.50;99.90
29575;DHT22;16507;51.046;6.406;2023-07-24T12:10:43;19.10;99.90
29575;DHT22;16507;51.046;6.406;2023-07-24T12:13:09;19.40;99.90
29575;DHT22;16507;51.046;6.406;2023-07-24T12:15:34;19.60;99.90
29575;DHT22;16507;51.046;6.406;2023-07-24T12:18:01;20.20;99.90
29575;DHT22;16507;51.046;6.406;2023-07-24T12:20:27;20.30;99.90
29575;DHT22;16507;51.046;6.406;2023-07-24T12:22:53;20.60;99.90
29575;DHT22;16507;51.046;6.406;2023-07-24T12:25:19;21.10;99.90
29575;DHT22;16507;51.046;6.406;2023-07-24T12:27:46;21.50;99.90
29575;DHT22;16507;51.046;6.406;2023-07-24T12:30:13;21.90;99.90
29575;DHT22;16507;51.046;6.406;2023-07-24T12:32:38;22.10;99.90
29575;DHT22;16507;51.046;6.406;2023-07-24T12:35:04;22.10;99.90
29575;DHT22;16507;51.046;6.406;2023-07-24T12:37:30;22.50;99.90
29575;DHT22;16507;51.046;6.406;2023-07-24T12:39:56;22.60;99.90
29575;DHT22;16507;51.046;6.406;2023-07-24T12:42:22;22.50;99.90
29575;DHT22;16507;51.046;6.406;2023-07-24T12:44:48;22.60;99.90
29575;DHT22;16507;51.046;6.406;2023-07-24T12:47:14;22.70;99.90
29575;DHT22;16507;51.046;6.406;2023-07-24T12:49:40;22.70;99.90
29575;DHT22;16507;51.046;6.406;2023-07-24T12:52:06;22.20;99.90
29575;DHT22;16507;51.046;6.406;2023-07-24T12:54:32;22.00;99.90
29575;DHT22;16507;51.046;6.406;2023-07-24T12:56:58;21.80;99.90
29575;DHT22;16507;51.046;6.406;2023-07-24T12:59:24;21.40;99.90
29575;DHT22;16507;51.046;6.406;2023-07-24T13:01:49;21.40;99.90
29575;DHT22;16507;51.046;6.406;2023-07-24T13:04:15;21.50;99.90
29575;DHT22;16507;51.046;6.406;2023-07-24T13:06:41;22.10;99.90
29575;DHT22;16507;51.046;6.406;2023-07-24T13:09:09;23.30;99.90
29575;DHT22;16507;51.046;6.406;2023-07-24T13:11:34;25.40;55.20
29575;DHT22;16507;51.046;6.406;2023-07-24T13:14:00;24.80;62.60
29575;DHT22;16507;51.046;6.406;2023-07-24T13:16:27;23.10;99.90
29575;DHT22;16507;51.046;6.406;2023-07-24T13:18:52;23.40;99.90
29575;DHT22;16507;51.046;6.406;2023-07-24T13:21:18;23.60;99.90
29575;DHT22;16507;51.046;6.406;2023-07-24T13:23:46;24.70;99.90
29575;DHT22;16507;51.046;6.406;2023-07-24T13:26:13;26.00;99.90
29575;DHT22;16507;51.046;6.406;2023-07-24T13:28:39;26.60;99.70
29575;DHT22;16507;51.046;6.406;2023-07-24T13:31:18;26.30;76.70
29575;DHT22;16507;51.046;6.406;2023-07-24T13:33:45;24.70;99.90
29575;DHT22;16507;51.046;6.406;2023-07-24T13:36:10;24.60;99.90
29575;DHT22;16507;51.046;6.406;2023-07-24T13:38:36;24.50;99.90
29575;DHT22;16507;51.046;6.406;2023-07-24T13:41:02;23.60;99.90
29575;DHT22;16507;51.046;6.406;2023-07-24T13:43:30;22.60;99.90
29575;DHT22;16507;51.046;6.406;2023-07-24T13:45:56;21.80;99.90
29575;DHT22;16507;51.046;6.406;2023-07-24T13:48:22;21.50;99.90
29575;DHT22;16507;51.046;6.406;2023-07-24T13:50:48;21.70;99.90
29575;DHT22;16507;51.046;6.406;2023-07-24T13:53:14;22.00;99.90
29575;DHT22;16507;51.046;6.406;2023-07-24T13:55:40;22.20;99.90
29575;DHT22;16507;51.046;6.406;2023-07-24T13:58:05;22.30;99.90
29575;DHT22;16507;51.046;6.406;2023-07-24T14:00:31;22.20;99.90
29575;DHT22;16507;51.046;6.406;2023-07-24T14:02:57;21.90;99.90
29575;DHT22;16507;51.046;6.406;2023-07-24T14:05:22;21.50;99.90
29575;DHT22;16507;51.046;6.406;2023-07-24T14:07:48;21.70;99.90
29575;DHT22;16507;51.046;6.406;2023-07-24T14:10:13;21.80;99.90
29575;DHT22;16507;51.046;6.406;2023-07-24T14:12:39;21.80;99.90
29575;DHT22;16507;51.046;6.406;2023-07-24T14:15:05;21.80;99.90
29575;DHT22;16507;51.046;6.406;2023-07-24T14:17:31;21.70;99.90
29575;DHT22;16507;51.046;6.406;2023-07-24T14:19:56;21.40;99.90
29575;DHT22;16507;51.046;6.406;2023-07-24T14:22:22;21.00;99.90
29575;DHT22;16507;51.046;6.406;2023-07-24T14:24:47;19.20;99.90
29575;DHT22;16507;51.046;6.406;2023-07-24T14:27:14;17.60;99.90
29575;DHT22;16507;51.046;6.406;2023-07-24T14:29:39;17.30;99.90
29575;DHT22;16507;51.046;6.406;2023-07-24T14:32:06;18.00;99.90
29575;DHT22;16507;51.046;6.406;2023-07-24T14:34:32;18.60;99.90
29575;DHT22;16507;51.046;6.406;2023-07-24T14:36:57;19.30;99.90
29575;DHT22;16507;51.046;6.406;2023-07-24T14:39:23;19.60;99.90
29575;DHT22;16507;51.046;6.406;2023-07-24T14:41:49;19.50;99.90
29575;DHT22;16507;51.046;6.406;2023-07-24T14:44:14;19.20;99.90
29575;DHT22;16507;51.046;6.406;2023-07-24T14:46:40;19.20;99.90
29575;DHT22;16507;51.046;6.406;2023-07-24T14:49:05;19.10;99.90
29575;DHT22;16507;51.046;6.406;2023-07-24T14:51:31;19.50;99.90
29575;DHT22;16507;51.046;6.406;2023-07-24T14:53:56;19.40;99.90
29575;DHT22;16507;51.046;6.406;2023-07-24T14:56:22;19.30;99.90
29575;DHT22;16507;51.046;6.406;2023-07-24T14:58:48;19.60;99.90
29575;DHT22;16507;51.046;6.406;2023-07-24T15:01:13;20.30;99.90
29575;DHT22;16507;51.046;6.406;2023-07-24T15:03:39;20.70;99.90
29575;DHT22;16507;51.046;6.406;2023-07-24T15:06:04;21.10;99.90
29575;DHT22;16507;51.046;6.406;2023-07-24T15:08:34;21.30;99.90
29575;DHT22;16507;51.046;6.406;2023-07-24T15:11:00;21.60;99.90
29575;DHT22;16507;51.046;6.406;2023-07-24T15:13:26;21.50;99.90
29575;DHT22;16507;51.046;6.406;2023-07-24T15:15:52;21.40;99.90
29575;DHT22;16507;51.046;6.406;2023-07-24T15:18:17;21.90;99.90
29575;DHT22;16507;51.046;6.406;2023-07-24T15:20:43;22.40;99.90
29575;DHT22;16507;51.046;6.406;2023-07-24T15:23:09;22.60;99.90
29575;DHT22;16507;51.046;6.406;2023-07-24T15:25:35;22.40;99.90
29575;DHT22;16507;51.046;6.406;2023-07-24T15:28:01;21.80;99.90